Time;durP1;ratioP1;P1;durP2;ratioP2;P2;SDS_P1;SDS_P2;PMS_P1;PMS_P2;Temp;Humidity;BMP_temperature;BMP_pressure;BME280_temperature;BME280_humidity;BME280_pressure;Samples;Min_cycle;Max_cycle;Signal;HPM_P1;HPM_P2
2023/04/02 03:00:32;;;;;;;0.20;0.10;;;17.40;52.10;;;;;;6096036;22;45773;-60
2023/04/02 03:02:58;;;;;;;0.10;0.10;;;17.40;52.20;;;;;;4975393;28;47550;-60
2023/04/02 03:05:25;;;;;;;0.20;0.20;;;17.40;52.10;;;;;;4980529;28;45258;-60
2023/04/02 03:07:51;;;;;;;0.10;0.10;;;17.40;52.20;;;;;;4978561;28;45565;-60
2023/04/02 03:10:51;;;;;;;0.25;0.20;;;17.40;52.20;;;;;;4944816;28;45537;-60
2023/04/02 03:13:37;;;;;;;0.25;0.20;;;17.40;52.20;;;;;;4954572;28;46085;-60
2023/04/02 03:16:14;;;;;;;0.10;0.10;;;17.40;52.20;;;;;;4962227;28;45411;-60
2023/04/02 03:18:41;;;;;;;0.35;0.13;;;17.40;52.20;;;;;;4973227;28;45351;-60
2023/04/02 03:21:34;;;;;;;0.22;0.20;;;17.40;52.20;;;;;;4973249;28;44996;-60
2023/04/02 03:24:02;;;;;;;0.10;0.10;;;17.40;52.20;;;;;;4989941;28;45990;-58
2023/04/02 03:26:38;;;;;;;0.15;0.13;;;17.40;52.20;;;;;;4964215;28;44923;-59
2023/04/02 03:29:15;;;;;;;0.25;0.20;;;17.40;52.20;;;;;;4966608;28;45324;-57
2023/04/02 03:31:43;;;;;;;0.30;0.20;;;17.40;52.20;;;;;;4983059;28;45949;-57
2023/04/02 03:34:18;;;;;;;0.30;0.20;;;17.40;52.20;;;;;;4959166;28;45944;-59
2023/04/02 03:37:01;;;;;;;0.30;0.20;;;17.40;52.20;;;;;;4988383;28;45200;-60
2023/04/02 03:39:41;;;;;;;0.20;0.20;;;17.40;52.20;;;;;;4996707;28;45149;-57
2023/04/02 03:42:15;;;;;;;0.30;0.20;;;17.40;52.10;;;;;;4950888;28;45020;-58
2023/04/02 03:45:15;;;;;;;0.20;0.17;;;17.40;52.10;;;;;;4958252;28;45256;-59
2023/04/02 03:48:01;;;;;;;0.35;0.10;;;17.40;52.20;;;;;;4974730;28;45356;-58
2023/04/02 03:50:30;;;;;;;0.10;0.10;;;17.40;52.10;;;;;;4974406;28;46489;-64
2023/04/02 03:52:57;;;;;;;0.20;0.20;;;17.30;52.10;;;;;;4988249;28;45566;-60
2023/04/02 03:55:31;;;;;;;0.28;0.20;;;17.40;52.20;;;;;;4974742;28;46118;-59
2023/04/02 03:58:15;;;;;;;0.10;0.10;;;17.40;52.10;;;;;;4976003;28;45628;-56
2023/04/02 04:01:03;;;;;;;0.10;0.10;;;17.40;52.20;;;;;;4981390;28;45833;-61
2023/04/02 04:03:39;;;;;;;0.28;0.28;;;17.40;52.10;;;;;;4990887;28;45411;-59
2023/04/02 04:06:20;;;;;;;0.28;0.20;;;17.40;52.20;;;;;;4969950;28;46956;-59
2023/04/02 04:09:06;;;;;;;0.20;0.15;;;17.40;52.20;;;;;;4961659;28;45197;-59
2023/04/02 04:11:37;;;;;;;0.28;0.28;;;17.40;52.20;;;;;;4985911;28;45612;-60
2023/04/02 04:14:16;;;;;;;0.40;0.22;;;17.40;52.20;;;;;;4977150;28;45512;-58
2023/04/02 04:16:52;;;;;;;0.30;0.20;;;17.40;52.20;;;;;;4983185;28;46757;-59
2023/04/02 04:19:45;;;;;;;0.43;0.13;;;17.40;52.20;;;;;;4967931;28;45159;-59
2023/04/02 04:22:18;;;;;;;0.50;0.30;;;17.40;52.10;;;;;;4973360;28;45257;-58
2023/04/02 04:24:46;;;;;;;0.20;0.20;;;17.40;52.20;;;;;;4926652;28;45526;-60
2023/04/02 04:27:17;;;;;;;0.30;0.25;;;17.40;52.20;;;;;;4963184;28;46059;-60
2023/04/02 04:30:02;;;;;;;0.15;0.15;;;17.40;52.20;;;;;;4959115;28;45471;-59
2023/04/02 04:32:32;;;;;;;0.20;0.20;;;17.30;52.10;;;;;;4948573;28;45729;-58
2023/04/02 04:35:20;;;;;;;0.10;0.10;;;17.40;52.20;;;;;;4970091;28;45529;-59
2023/04/02 04:37:48;;;;;;;0.10;0.10;;;17.40;52.10;;;;;;4986709;28;46174;-61
2023/04/02 04:40:27;;;;;;;0.70;0.30;;;17.30;52.10;;;;;;4953628;28;45456;-65
2023/04/02 04:42:55;;;;;;;0.20;0.20;;;17.40;52.20;;;;;;4969615;28;45669;-59
2023/04/02 04:45:43;;;;;;;0.05;0.05;;;17.40;52.20;;;;;;4952290;28;45591;-61
2023/04/02 04:48:19;;;;;;;0.17;0.15;;;17.30;52.10;;;;;;4958552;28;45304;-61
2023/04/02 04:50:55;;;;;;;0.40;0.15;;;17.40;52.10;;;;;;4975883;28;45071;-61
2023/04/02 04:53:23;;;;;;;0.25;0.10;;;17.30;52.10;;;;;;4961388;28;45841;-60
2023/04/02 04:55:51;;;;;;;0.13;0.13;;;17.40;52.20;;;;;;4969842;28;45442;-59
2023/04/02 04:58:42;;;;;;;0.28;0.20;;;17.30;52.10;;;;;;4980918;28;45659;-61
2023/04/02 05:01:46;;;;;;;0.40;0.30;;;17.30;52.20;;;;;;4961143;28;45419;-66
2023/04/02 05:04:24;;;;;;;;;;;17.30;52.10;;;;;;4973915;28;45208;-58
2023/04/02 05:07:16;;;;;;;0.63;0.20;;;17.30;52.30;;;;;;4989424;28;45588;-61
2023/04/02 05:10:06;;;;;;;0.20;0.20;;;17.30;52.20;;;;;;4977534;28;47082;-60
2023/04/02 05:12:36;;;;;;;0.10;0.10;;;17.30;52.20;;;;;;4974787;28;45328;-59
2023/04/02 05:15:27;;;;;;;0.40;0.20;;;17.30;52.10;;;;;;4977525;28;45796;-63
2023/04/02 05:18:09;;;;;;;0.30;0.10;;;17.30;52.10;;;;;;4973604;28;45396;-61
2023/04/02 05:21:03;;;;;;;0.32;0.20;;;17.30;52.10;;;;;;4989193;28;45956;-59
2023/04/02 05:23:38;;;;;;;0.88;0.20;;;17.30;52.10;;;;;;4976267;28;45334;-60
2023/04/02 05:26:14;;;;;;;0.25;0.20;;;17.30;52.20;;;;;;4955784;28;45500;-60
2023/04/02 05:28:50;;;;;;;0.30;0.10;;;17.30;52.20;;;;;;4978406;28;45575;-60
2023/04/02 05:31:39;;;;;;;0.08;0.05;;;17.30;52.20;;;;;;4986916;28;46215;-59
2023/04/02 05:34:05;;;;;;;0.30;0.20;;;17.30;52.20;;;;;;4976130;28;46012;-59
2023/04/02 05:36:31;;;;;;;0.28;0.20;;;17.30;52.20;;;;;;4993436;28;44820;-59
2023/04/02 05:38:57;;;;;;;0.22;0.20;;;17.30;52.20;;;;;;4966868;28;45302;-59
2023/04/02 05:41:26;;;;;;;0.38;0.20;;;17.30;52.20;;;;;;4987398;28;46038;-58
2023/04/02 05:44:10;;;;;;;0.20;0.20;;;17.30;52.20;;;;;;4980891;28;45108;-59
2023/04/02 05:46:40;;;;;;;0.32;0.20;;;17.30;52.20;;;;;;4977028;28;45274;-61
2023/04/02 05:49:08;;;;;;;0.20;0.20;;;17.30;52.20;;;;;;4949365;28;44698;-59
2023/04/02 05:51:44;;;;;;;0.20;0.20;;;17.30;52.20;;;;;;4963447;28;45953;-59
2023/04/02 05:54:35;;;;;;;0.38;0.10;;;17.30;52.10;;;;;;4960819;28;45426;-59
2023/04/02 05:57:16;;;;;;;0.35;0.25;;;17.30;52.10;;;;;;4974974;28;45449;-57
2023/04/02 05:59:55;;;;;;;0.20;0.20;;;17.30;52.20;;;;;;4984860;28;45177;-56
2023/04/02 06:02:25;;;;;;;0.50;0.20;;;17.20;52.20;;;;;;4967110;28;46332;-59
2023/04/02 06:05:06;;;;;;;0.30;0.22;;;17.30;52.20;;;;;;4974821;28;45324;-60
2023/04/02 06:07:35;;;;;;;0.10;0.10;;;17.30;52.10;;;;;;4962246;28;45378;-59
2023/04/02 06:10:04;;;;;;;0.50;0.25;;;17.30;52.10;;;;;;4962553;28;45171;-60
2023/04/02 06:12:34;;;;;;;0.20;0.20;;;17.30;52.20;;;;;;4955358;28;46846;-58
2023/04/02 06:15:00;;;;;;;0.20;0.20;;;17.30;52.10;;;;;;4974256;28;45607;-59
2023/04/02 06:17:26;;;;;;;0.20;0.10;;;17.30;52.10;;;;;;4955751;28;45248;-59
2023/04/02 06:19:52;;;;;;;0.45;0.25;;;17.30;52.70;;;;;;4982501;28;45353;-57
2023/04/02 06:22:37;;;;;;;0.10;0.10;;;17.30;52.10;;;;;;4971183;28;45474;-58
2023/04/02 06:25:22;;;;;;;0.20;0.20;;;17.30;52.10;;;;;;4961018;28;45175;-60
2023/04/02 06:27:48;;;;;;;0.20;0.10;;;17.20;52.10;;;;;;4958850;28;44746;-58
2023/04/02 06:30:17;;;;;;;0.20;0.20;;;17.20;52.10;;;;;;4970138;28;44768;-61
2023/04/02 06:32:42;;;;;;;0.30;0.20;;;17.20;52.10;;;;;;4976573;28;46072;-59
2023/04/02 06:35:15;;;;;;;0.15;0.13;;;17.30;52.20;;;;;;4973425;28;44831;-59
2023/04/02 06:37:42;;;;;;;0.55;0.30;;;17.20;52.10;;;;;;4964187;28;45185;-59
2023/04/02 06:40:43;;;;;;;0.55;0.20;;;17.20;52.20;;;;;;4955465;28;45606;-59
2023/04/02 06:43:19;;;;;;;0.30;0.20;;;17.20;52.20;;;;;;4962318;28;46337;-59
2023/04/02 06:45:45;;;;;;;0.22;0.20;;;17.20;52.10;;;;;;4968660;28;45325;-59
2023/04/02 06:48:16;;;;;;;0.20;0.20;;;17.20;52.20;;;;;;4957916;28;45463;-60
2023/04/02 06:50:48;;;;;;;0.20;0.20;;;17.20;52.20;;;;;;4962838;28;45253;-57
2023/04/02 06:53:20;;;;;;;0.10;0.10;;;17.20;52.20;;;;;;4987726;28;46255;-59
2023/04/02 06:56:03;;;;;;;0.13;0.13;;;17.20;52.30;;;;;;4967998;28;45580;-59
2023/04/02 06:58:28;;;;;;;0.30;0.20;;;17.20;52.20;;;;;;4990557;28;45570;-58
2023/04/02 07:00:54;;;;;;;0.30;0.20;;;17.10;52.20;;;;;;4982468;28;45340;-58
2023/04/02 07:03:27;;;;;;;0.20;0.20;;;17.20;52.30;;;;;;4993849;28;45254;-59
2023/04/02 07:05:53;;;;;;;0.25;0.17;;;17.20;52.30;;;;;;4971183;28;46360;-58
2023/04/02 07:08:19;;;;;;;0.20;0.20;;;17.20;52.30;;;;;;4974993;28;45519;-59
2023/04/02 07:10:45;;;;;;;0.20;0.10;;;17.20;52.80;;;;;;4990788;28;45345;-59
2023/04/02 07:13:14;;;;;;;0.20;0.20;;;17.20;52.30;;;;;;4991902;28;46093;-61
2023/04/02 07:15:40;;;;;;;0.90;0.20;;;17.20;52.30;;;;;;4982171;28;45327;-62
2023/04/02 07:18:05;;;;;;;0.30;0.20;;;17.10;52.30;;;;;;4957142;28;45350;-59
2023/04/02 07:20:37;;;;;;;0.25;0.20;;;17.20;52.40;;;;;;4988848;28;44657;-58
2023/04/02 07:23:03;;;;;;;0.52;0.17;;;17.20;52.40;;;;;;4968569;28;46226;-59
2023/04/02 07:25:28;;;;;;;0.20;0.10;;;17.10;52.30;;;;;;4982619;28;45638;-59
2023/04/02 07:27:54;;;;;;;0.22;0.20;;;17.10;52.90;;;;;;4975429;28;45043;-59
2023/04/02 07:30:20;;;;;;;0.28;0.28;;;17.20;52.30;;;;;;4973013;28;44741;-59
2023/04/02 07:32:45;;;;;;;0.20;0.20;;;17.20;52.30;;;;;;4972999;28;47069;-60
2023/04/02 07:35:11;;;;;;;0.45;0.20;;;17.10;52.30;;;;;;4988746;28;45390;-58
2023/04/02 07:37:37;;;;;;;0.63;0.22;;;17.10;52.30;;;;;;4973483;28;45574;-59
2023/04/02 07:40:07;;;;;;;0.30;0.20;;;17.10;52.30;;;;;;4987742;28;44792;-60
2023/04/02 07:42:36;;;;;;;0.32;0.10;;;17.10;52.30;;;;;;5000813;22;45785;-59
2023/04/02 07:45:01;;;;;;;1.08;0.20;;;17.10;52.40;;;;;;5008273;28;45640;-58
2023/04/02 07:47:28;;;;;;;0.25;0.22;;;17.10;52.30;;;;;;4996302;28;44936;-59
2023/04/02 07:49:53;;;;;;;0.20;0.20;;;17.10;52.40;;;;;;4987596;28;45331;-59
2023/04/02 07:52:20;;;;;;;0.30;0.20;;;17.10;52.40;;;;;;5019543;28;45487;-59
2023/04/02 07:54:46;;;;;;;0.20;0.10;;;17.10;52.30;;;;;;4991902;28;45514;-60
2023/04/02 07:57:11;;;;;;;0.20;0.20;;;17.10;52.40;;;;;;4982124;28;48255;-59
2023/04/02 07:59:37;;;;;;;0.40;0.28;;;17.10;52.40;;;;;;4992663;28;45248;-58
2023/04/02 08:02:03;;;;;;;0.30;0.22;;;17.10;52.40;;;;;;5002870;28;45894;-59
2023/04/02 08:04:28;;;;;;;0.20;0.20;;;17.20;52.40;;;;;;4994398;28;45451;-59
2023/04/02 08:06:54;;;;;;;0.52;0.20;;;17.10;52.20;;;;;;4988999;28;45298;-58
2023/04/02 08:09:20;;;;;;;0.20;0.20;;;17.20;52.30;;;;;;4989984;28;45758;-59
2023/04/02 08:11:45;;;;;;;0.20;0.20;;;17.20;52.30;;;;;;5004692;28;45201;-60
2023/04/02 08:14:11;;;;;;;0.32;0.15;;;17.20;52.30;;;;;;5003480;28;45293;-60
2023/04/02 08:17:03;;;;;;;0.13;0.10;;;17.20;52.30;;;;;;4994939;28;45296;-59
2023/04/02 08:19:28;;;;;;;0.20;0.20;;;17.20;52.30;;;;;;5005984;28;45283;-60
2023/04/02 08:21:55;;;;;;;0.40;0.40;;;17.20;52.30;;;;;;4989454;28;45894;-59
2023/04/02 08:24:20;;;;;;;0.43;0.40;;;17.20;52.30;;;;;;5002899;28;45332;-59
2023/04/02 08:26:47;;;;;;;0.40;0.20;;;17.20;52.30;;;;;;5022691;28;44790;-59
2023/04/02 08:29:12;;;;;;;0.55;0.30;;;17.10;52.20;;;;;;5023303;28;45584;-58
2023/04/02 08:31:38;;;;;;;0.30;0.20;;;17.10;52.20;;;;;;5010512;28;46517;-59
2023/04/02 08:34:03;;;;;;;0.20;0.10;;;17.20;52.30;;;;;;5026225;28;45291;-60
2023/04/02 08:36:32;;;;;;;0.17;0.17;;;17.10;52.30;;;;;;5018415;28;45367;-59
2023/04/02 08:38:58;;;;;;;0.38;0.30;;;17.20;52.30;;;;;;5012621;28;45499;-61
2023/04/02 08:41:27;;;;;;;0.45;0.30;;;17.20;52.20;;;;;;5016397;28;45938;-59
2023/04/02 08:44:01;;;;;;;0.30;0.20;;;17.20;52.20;;;;;;5025379;28;45199;-60
2023/04/02 08:46:43;;;;;;;1.63;0.35;;;17.20;52.20;;;;;;5016338;28;45262;-60
2023/04/02 08:49:17;;;;;;;0.20;0.20;;;17.20;52.20;;;;;;5009628;28;45559;-59
2023/04/02 08:51:42;;;;;;;0.20;0.15;;;17.20;52.20;;;;;;5000456;28;46205;-58
2023/04/02 08:54:32;;;;;;;0.50;0.20;;;17.20;52.20;;;;;;5023156;28;45204;-59
2023/04/02 08:57:20;;;;;;;0.47;0.20;;;17.20;52.20;;;;;;4992299;28;45409;-60
2023/04/02 08:59:46;;;;;;;0.47;0.15;;;17.20;52.20;;;;;;5019557;28;45115;-58
2023/04/02 09:02:34;;;;;;;0.20;0.10;;;17.20;52.20;;;;;;4980849;28;45319;-58
2023/04/02 09:05:06;;;;;;;0.65;0.20;;;17.20;52.20;;;;;;5022536;28;45950;-59
2023/04/02 09:07:34;;;;;;;0.30;0.10;;;17.20;52.20;;;;;;4985853;28;45973;-60
2023/04/02 09:10:00;;;;;;;0.10;0.10;;;17.20;52.20;;;;;;5027021;28;44781;-59
2023/04/02 09:12:28;;;;;;;0.10;0.10;;;17.20;52.20;;;;;;5001373;28;46120;-57
2023/04/02 09:15:05;;;;;;;0.10;0.10;;;17.20;52.10;;;;;;4993464;28;46236;-56
2023/04/02 09:17:36;;;;;;;0.20;0.20;;;17.20;52.10;;;;;;4983069;28;45340;-58
2023/04/02 09:20:16;;;;;;;0.30;0.30;;;17.20;52.10;;;;;;5016696;28;45291;-58
2023/04/02 09:22:44;;;;;;;0.20;0.20;;;17.20;52.10;;;;;;5023159;28;47101;-59
2023/04/02 09:25:15;;;;;;;0.65;0.22;;;17.20;52.10;;;;;;5005263;28;45410;-60
2023/04/02 09:27:41;;;;;;;0.28;0.10;;;17.20;52.10;;;;;;4992407;28;45243;-58
2023/04/02 09:30:28;;;;;;;0.40;0.30;;;17.20;52.10;;;;;;5017704;28;44831;-60
2023/04/02 09:33:00;;;;;;;0.63;0.20;;;17.20;52.20;;;;;;5005334;28;45734;-59
2023/04/02 09:35:28;;;;;;;0.20;0.20;;;17.20;52.20;;;;;;5003646;28;45269;-57
2023/04/02 09:38:09;;;;;;;0.30;0.20;;;17.20;52.20;;;;;;5008009;28;45567;-58
2023/04/02 09:40:58;;;;;;;0.20;0.20;;;17.20;52.20;;;;;;5016634;28;45589;-59
2023/04/02 09:43:24;;;;;;;0.20;0.20;;;17.20;52.20;;;;;;5011235;28;46344;-60
2023/04/02 09:46:05;;;;;;;0.47;0.30;;;17.20;52.20;;;;;;5017426;28;45287;-60
2023/04/02 09:48:35;;;;;;;0.10;0.10;;;17.20;52.20;;;;;;5014495;28;47716;-60
2023/04/02 09:51:20;;;;;;;0.35;0.20;;;17.20;52.20;;;;;;4970217;28;45320;-58
2023/04/02 09:53:46;;;;;;;0.65;0.20;;;17.20;52.20;;;;;;5021264;28;45319;-61
2023/04/02 09:56:16;;;;;;;0.52;0.30;;;17.20;52.10;;;;;;5019813;28;45526;-59
2023/04/02 09:58:43;;;;;;;0.28;0.28;;;17.20;52.10;;;;;;5026126;28;45298;-58
2023/04/02 10:01:29;;;;;;;0.40;0.30;;;17.20;52.10;;;;;;5019036;28;45224;-58
2023/04/02 10:03:55;;;;;;;0.20;0.20;;;17.30;52.10;;;;;;5016495;28;45343;-59
2023/04/02 10:06:20;;;;;;;0.20;0.10;;;17.20;52.10;;;;;;5024327;28;45783;-59
2023/04/02 10:08:47;;;;;;;0.32;0.13;;;17.20;52.10;;;;;;5011725;28;45286;-59
2023/04/02 10:11:16;;;;;;;0.43;0.20;;;17.30;52.20;;;;;;5030187;28;46430;-59
2023/04/02 10:13:58;;;;;;;0.43;0.20;;;17.20;52.10;;;;;;5014989;28;46145;-59
2023/04/02 10:16:38;;;;;;;0.65;0.30;;;17.20;52.20;;;;;;4988278;28;45370;-59
2023/04/02 10:19:29;;;;;;;0.40;0.20;;;17.30;52.20;;;;;;4987605;28;45326;-59
2023/04/02 10:21:55;;;;;;;0.68;0.30;;;17.20;52.20;;;;;;5022675;28;45057;-59
2023/04/02 10:24:21;;;;;;;0.32;0.30;;;17.20;52.20;;;;;;5025530;28;46252;-59
2023/04/02 10:26:50;;;;;;;0.20;0.20;;;17.30;52.20;;;;;;4991138;28;45394;-59
2023/04/02 10:29:16;;;;;;;0.47;0.28;;;17.20;52.20;;;;;;5014445;28;45347;-59
2023/04/02 10:31:54;;;;;;;0.20;0.20;;;17.20;52.20;;;;;;5018149;28;45033;-58
2023/04/02 10:34:25;;;;;;;0.25;0.20;;;17.20;52.10;;;;;;5026412;28;46045;-58
2023/04/02 10:37:29;;;;;;;0.40;0.30;;;17.20;52.20;;;;;;5005280;28;45203;-58
2023/04/02 10:39:57;;;;;;;;;;;17.30;52.20;;;;;;5037879;28;45289;-60
2023/04/02 10:42:34;;;;;;;0.45;0.25;;;17.30;52.20;;;;;;5018480;28;45953;-59
2023/04/02 10:45:37;;;;;;;0.25;0.20;;;17.30;52.10;;;;;;5009518;28;45602;-59
2023/04/02 10:48:19;;;;;;;0.20;0.20;;;17.30;52.20;;;;;;5025939;28;45420;-59
2023/04/02 10:51:28;;;;;;;0.50;0.15;;;17.30;52.20;;;;;;5007090;28;45947;-59
2023/04/02 10:53:59;;;;;;;0.20;0.20;;;17.30;52.10;;;;;;5007611;28;45499;-60
2023/04/02 10:56:25;;;;;;;0.20;0.20;;;17.30;52.10;;;;;;5022063;28;45912;-60
2023/04/02 10:59:05;;;;;;;0.30;0.20;;;17.30;52.10;;;;;;5010036;28;45878;-59
2023/04/02 11:01:30;;;;;;;0.25;0.25;;;17.30;52.00;;;;;;5004702;28;45037;-60
2023/04/02 11:04:16;;;;;;;0.20;0.20;;;17.30;52.10;;;;;;4995693;28;45240;-59
2023/04/02 11:06:51;;;;;;;0.20;0.20;;;17.30;52.10;;;;;;4991983;28;45626;-62
2023/04/02 11:09:23;;;;;;;0.50;0.30;;;17.30;52.10;;;;;;5009305;28;45377;-59
2023/04/02 11:11:50;;;;;;;0.28;0.20;;;17.30;52.10;;;;;;4990914;28;45751;-61
2023/04/02 11:14:23;;;;;;;0.17;0.10;;;17.30;52.20;;;;;;5010474;28;45879;-60
2023/04/02 11:16:49;;;;;;;0.30;0.20;;;17.30;52.10;;;;;;5001640;28;46252;-60
2023/04/02 11:19:14;;;;;;;0.52;0.20;;;17.40;52.20;;;;;;4977196;28;45341;-58
2023/04/02 11:21:41;;;;;;;0.17;0.17;;;17.30;52.10;;;;;;5021172;28;45177;-60
2023/04/02 11:24:24;;;;;;;0.20;0.10;;;17.30;52.10;;;;;;5026811;28;45423;-60
2023/04/02 11:26:52;;;;;;;0.45;0.30;;;17.40;52.10;;;;;;5004696;28;45604;-59
2023/04/02 11:29:26;;;;;;;0.30;0.22;;;17.30;52.10;;;;;;4990888;28;45179;-58
2023/04/02 11:32:14;;;;;;;0.32;0.20;;;17.30;52.10;;;;;;4986443;28;45142;-59
2023/04/02 11:34:40;;;;;;;0.30;0.20;;;17.30;52.10;;;;;;5024216;28;44702;-59
2023/04/02 11:37:34;;;;;;;0.22;0.22;;;17.40;52.20;;;;;;5019817;28;45138;-60
2023/04/02 11:40:10;;;;;;;0.65;0.20;;;17.30;52.10;;;;;;5024718;28;46529;-58
2023/04/02 11:42:37;;;;;;;0.30;0.30;;;17.40;52.10;;;;;;5007810;28;45632;-60
2023/04/02 11:47:59;;;;;;;0.30;0.20;;;17.40;52.20;;;;;;5022337;28;47023;-59
2023/04/02 11:50:35;;;;;;;0.20;0.20;;;17.30;52.10;;;;;;5026522;28;45282;-59
2023/04/02 11:53:01;;;;;;;0.30;0.30;;;17.30;52.10;;;;;;5024799;28;45253;-60
2023/04/02 11:55:32;;;;;;;0.25;0.20;;;17.30;52.10;;;;;;5005746;28;44744;-60
2023/04/02 11:58:23;;;;;;;0.20;0.20;;;17.30;52.10;;;;;;5009738;28;46094;-59
2023/04/02 12:01:10;;;;;;;0.20;0.20;;;17.40;52.20;;;;;;4997300;28;45067;-59
2023/04/02 12:04:08;;;;;;;0.40;0.28;;;17.30;52.10;;;;;;5018321;28;45464;-60
2023/04/02 12:06:45;;;;;;;0.57;0.30;;;17.30;52.10;;;;;;5026850;28;45293;-59
2023/04/02 12:09:22;;;;;;;0.20;0.20;;;17.40;52.10;;;;;;5025560;28;46243;-58
2023/04/02 12:11:51;;;;;;;0.30;0.20;;;17.40;52.20;;;;;;4999726;22;45315;-58
2023/04/02 12:14:35;;;;;;;0.28;0.28;;;17.40;52.10;;;;;;4969040;28;44737;-58
2023/04/02 12:17:04;;;;;;;0.40;0.22;;;17.40;52.10;;;;;;4977964;28;45251;-58
2023/04/02 12:19:30;;;;;;;0.30;0.10;;;17.40;52.10;;;;;;4971756;28;44976;-56
2023/04/02 12:21:56;;;;;;;0.30;0.10;;;17.30;52.00;;;;;;4967750;28;45622;-59
2023/04/02 12:24:22;;;;;;;0.20;0.20;;;17.40;52.10;;;;;;4954623;28;45297;-59
2023/04/02 12:26:48;;;;;;;0.32;0.20;;;17.40;52.10;;;;;;4986169;28;45227;-56
2023/04/02 12:29:26;;;;;;;0.10;0.10;;;17.40;52.10;;;;;;4990952;28;44836;-57
2023/04/02 12:31:56;;;;;;;0.10;0.08;;;17.40;52.20;;;;;;4979529;28;44735;-57
2023/04/02 12:34:26;;;;;;;0.20;0.20;;;17.40;52.10;;;;;;4986825;28;45253;-60
2023/04/02 12:36:53;;;;;;;0.30;0.20;;;17.40;52.20;;;;;;4983260;28;44714;-59
2023/04/02 12:39:19;;;;;;;0.35;0.30;;;17.40;52.10;;;;;;4987819;28;45542;-59
2023/04/02 12:41:45;;;;;;;0.10;0.10;;;17.40;52.10;;;;;;4979568;28;45295;-60
2023/04/02 12:44:15;;;;;;;0.75;0.30;;;17.40;52.60;;;;;;4986932;28;44996;-60
2023/04/02 12:46:40;;;;;;;0.20;0.20;;;17.40;52.10;;;;;;4974826;28;45760;-59
2023/04/02 12:49:07;;;;;;;0.30;0.30;;;17.40;52.10;;;;;;4970682;28;45161;-59
2023/04/02 12:51:34;;;;;;;0.25;0.25;;;17.40;52.10;;;;;;4988093;28;45220;-59
2023/04/02 12:54:00;;;;;;;0.60;0.38;;;17.40;52.10;;;;;;4971184;28;45913;-59
2023/04/02 12:56:26;;;;;;;0.55;0.30;;;17.40;52.10;;;;;;4998457;28;46352;-60
2023/04/02 12:58:56;;;;;;;0.20;0.20;;;17.40;52.10;;;;;;4986204;28;46007;-59
2023/04/02 13:01:23;;;;;;;0.28;0.10;;;17.40;52.10;;;;;;4994139;28;45556;-58
2023/04/02 13:04:11;;;;;;;0.28;0.17;;;17.40;52.10;;;;;;4982424;28;45688;-59
2023/04/02 13:06:37;;;;;;;0.30;0.20;;;17.40;52.10;;;;;;4979644;28;45586;-59
2023/04/02 13:09:23;;;;;;;0.22;0.20;;;17.40;52.10;;;;;;4985180;28;46228;-60
2023/04/02 13:11:49;;;;;;;0.88;0.20;;;17.40;52.10;;;;;;4964071;28;45409;-59
2023/04/02 13:14:17;;;;;;;0.50;0.20;;;17.40;52.10;;;;;;4989289;28;46648;-61
2023/04/02 13:16:42;;;;;;;0.20;0.20;;;17.40;52.10;;;;;;4981288;28;45648;-58
2023/04/02 13:19:31;;;;;;;0.25;0.20;;;17.40;52.10;;;;;;4987969;28;45704;-58
2023/04/02 13:21:58;;;;;;;0.22;0.20;;;17.40;52.00;;;;;;4966430;28;44948;-60
2023/04/02 13:24:26;;;;;;;0.47;0.20;;;17.40;52.10;;;;;;4990520;28;45342;-59
2023/04/02 13:27:02;;;;;;;0.50;0.40;;;17.40;52.10;;;;;;4986744;28;44781;-59
2023/04/02 13:29:28;;;;;;;0.28;0.20;;;17.40;52.10;;;;;;4989803;28;46027;-61
2023/04/02 13:31:58;;;;;;;0.10;0.10;;;17.40;52.10;;;;;;4983207;28;45937;-60
2023/04/02 13:34:24;;;;;;;0.40;0.30;;;17.40;52.10;;;;;;4994063;28;45575;-60
2023/04/02 13:36:50;;;;;;;0.50;0.28;;;17.40;52.10;;;;;;4985131;28;45462;-60
2023/04/02 13:39:15;;;;;;;0.22;0.22;;;17.40;52.00;;;;;;5006338;28;48079;-59
2023/04/02 13:42:01;;;;;;;0.20;0.20;;;17.40;52.10;;;;;;4988441;28;44743;-62
2023/04/02 13:44:29;;;;;;;0.38;0.38;;;17.40;52.00;;;;;;4998015;28;44680;-59
2023/04/02 13:46:55;;;;;;;0.43;0.20;;;17.40;52.00;;;;;;4981976;28;44829;-60
2023/04/02 13:49:21;;;;;;;0.32;0.30;;;17.50;52.00;;;;;;4991962;28;46018;-60
2023/04/02 13:51:51;;;;;;;1.02;0.30;;;17.40;51.90;;;;;;4987779;28;45025;-59
2023/04/02 13:54:26;;;;;;;0.45;0.30;;;17.50;52.00;;;;;;4990636;28;48909;-60
2023/04/02 13:56:53;;;;;;;0.57;0.50;;;17.40;51.50;;;;;;4982230;28;46171;-59
2023/04/02 13:59:18;;;;;;;1.70;0.60;;;17.30;50.00;;;;;;4988295;28;46250;-59
2023/04/02 14:01:45;;;;;;;0.70;0.63;;;17.10;49.60;;;;;;4990183;28;45582;-61
2023/04/02 14:04:15;;;;;;;1.00;0.90;;;16.90;49.00;;;;;;4989556;28;45360;-59
2023/04/02 14:07:11;;;;;;;2.20;1.02;;;16.70;49.60;;;;;;4968745;28;44867;-57
2023/04/02 14:09:51;;;;;;;1.38;1.05;;;16.90;49.10;;;;;;4985459;28;45548;-58
2023/04/02 14:12:30;;;;;;;5.55;1.13;;;17.10;48.40;;;;;;4987600;28;45239;-64
2023/04/02 14:14:59;;;;;;;2.00;1.10;;;17.20;48.10;;;;;;4976551;28;45266;-66
2023/04/02 14:17:49;;;;;;;1.25;0.77;;;17.10;48.20;;;;;;4982667;28;44966;-65
2023/04/02 14:20:28;;;;;;;0.90;0.70;;;16.80;48.90;;;;;;4997735;22;46069;-66
2023/04/02 14:23:15;;;;;;;2.72;0.70;;;16.60;49.30;;;;;;4974489;28;45186;-68
2023/04/02 14:25:53;;;;;;;1.27;0.82;;;16.60;49.50;;;;;;4969231;28;46148;-65
2023/04/02 14:28:40;;;;;;;0.85;0.63;;;16.50;49.80;;;;;;4989942;28;45043;-66
2023/04/02 14:31:10;;;;;;;0.68;0.60;;;16.60;49.80;;;;;;4977464;28;46255;-67
2023/04/02 14:33:54;;;;;;;0.80;0.65;;;16.60;50.00;;;;;;4958892;28;45325;-65
2023/04/02 14:36:57;;;;;;;1.52;0.70;;;16.60;49.80;;;;;;4983238;28;45866;-65
2023/04/02 14:39:49;;;;;;;0.80;0.80;;;16.60;49.90;;;;;;4994049;28;45439;-67
2023/04/02 14:42:17;;;;;;;1.83;0.70;;;16.60;49.70;;;;;;4969646;28;46436;-65
2023/04/02 14:45:01;;;;;;;0.82;0.80;;;16.60;50.00;;;;;;4961611;28;45247;-65
2023/04/02 14:47:36;;;;;;;;;;;16.60;49.80;;;;;;4968750;28;45335;-66
2023/04/02 14:50:12;;;;;;;0.57;0.57;;;16.60;49.80;;;;;;5008610;22;45777;-66
2023/04/02 14:52:38;;;;;;;4.28;0.75;;;16.70;49.90;;;;;;4968861;28;45303;-66
2023/04/02 14:55:21;;;;;;;1.08;0.80;;;16.70;50.00;;;;;;4953607;28;45968;-68
2023/04/02 14:57:50;;;;;;;0.82;0.68;;;16.70;49.90;;;;;;4971052;28;45643;-71
2023/04/02 15:00:35;;;;;;;0.88;0.60;;;16.70;50.00;;;;;;4956247;28;45577;-69
2023/04/02 15:03:17;;;;;;;0.57;0.57;;;16.70;50.00;;;;;;4969668;28;46474;-64
2023/04/02 15:05:47;;;;;;;0.93;0.80;;;16.70;50.00;;;;;;4977536;28;45060;-66
2023/04/02 15:08:26;;;;;;;0.55;0.55;;;16.70;50.00;;;;;;4966383;28;44733;-67
2023/04/02 15:11:06;;;;;;;0.70;0.70;;;16.80;50.10;;;;;;4976534;28;45463;-66
2023/04/02 15:13:37;;;;;;;1.25;0.90;;;16.80;50.10;;;;;;4973693;28;45229;-68
2023/04/02 15:16:22;;;;;;;0.98;0.68;;;16.80;50.20;;;;;;4950397;28;45075;-66
2023/04/02 15:19:01;;;;;;;3.03;0.85;;;16.80;50.20;;;;;;4982569;28;45186;-65
2023/04/02 15:21:36;;;;;;;1.27;0.82;;;16.80;50.20;;;;;;4979653;28;45157;-66
2023/04/02 15:24:02;;;;;;;0.70;0.65;;;16.80;50.30;;;;;;4964890;28;46187;-66
2023/04/02 15:26:49;;;;;;;1.48;0.70;;;16.80;50.30;;;;;;4980751;28;45159;-67
2023/04/02 15:29:26;;;;;;;0.85;0.80;;;16.80;50.40;;;;;;4986576;28;45262;-67
2023/04/02 15:31:53;;;;;;;0.85;0.65;;;16.80;50.30;;;;;;4971438;28;44824;-67
2023/04/02 15:34:39;;;;;;;1.00;0.60;;;16.80;50.40;;;;;;4972972;28;46089;-66
2023/04/02 15:37:31;;;;;;;0.50;0.50;;;16.80;50.30;;;;;;4952961;28;45323;-66
2023/04/02 15:40:22;;;;;;;1.17;0.80;;;16.80;50.40;;;;;;4968269;28;45316;-70
2023/04/02 15:42:55;;;;;;;0.88;0.60;;;16.80;50.50;;;;;;4977709;28;45422;-67
2023/04/02 15:45:25;;;;;;;0.80;0.68;;;16.80;50.50;;;;;;4966070;28;46167;-67
2023/04/02 15:48:13;;;;;;;0.95;0.60;;;16.80;50.50;;;;;;4962972;28;45868;-66
2023/04/02 15:50:48;;;;;;;0.70;0.70;;;16.80;50.50;;;;;;4969635;28;45296;-65
2023/04/02 15:53:14;;;;;;;1.95;0.68;;;16.80;50.60;;;;;;4969357;28;45261;-68
2023/04/02 15:55:45;;;;;;;0.60;0.60;;;16.80;50.60;;;;;;4976915;28;45056;-66
2023/04/02 15:58:38;;;;;;;3.17;0.88;;;16.80;50.70;;;;;;4969185;28;45241;-66
2023/04/02 16:01:37;;;;;;;0.87;0.73;;;16.80;50.60;;;;;;4945368;28;46643;-67
2023/04/02 16:04:26;;;;;;;0.60;0.60;;;16.80;50.70;;;;;;4971565;28;45725;-67
2023/04/02 16:07:01;;;;;;;1.15;0.60;;;16.80;50.70;;;;;;4964157;28;47315;-69
2023/04/02 16:09:42;;;;;;;0.80;0.60;;;16.80;50.70;;;;;;4981839;28;45261;-67
2023/04/02 16:12:14;;;;;;;0.60;0.60;;;16.80;50.70;;;;;;4956020;28;44853;-68
2023/04/02 16:14:41;;;;;;;0.80;0.73;;;16.80;50.80;;;;;;4957580;28;45545;-67
2023/04/02 16:17:17;;;;;;;0.50;0.50;;;16.80;51.40;;;;;;4957186;28;45552;-68
2023/04/02 16:19:49;;;;;;;0.52;0.52;;;16.80;50.80;;;;;;4969148;28;45003;-65
2023/04/02 16:22:22;;;;;;;0.70;0.50;;;16.80;50.80;;;;;;4949744;28;45636;-68
2023/04/02 16:24:52;;;;;;;1.17;0.50;;;16.80;50.80;;;;;;4981581;28;45454;-67
2023/04/02 16:27:37;;;;;;;2.05;0.60;;;16.80;50.90;;;;;;4963178;28;44996;-67